sensor_id;sensor_type;location;lat;lon;timestamp;P1;durP1;ratioP1;P2;durP2;ratioP2
1479;SDS011;732;51.698;4.886;2023-08-06T00:00:33;12.97;;;8.97;;
1479;SDS011;732;51.698;4.886;2023-08-06T00:03:03;10.23;;;7.60;;
1479;SDS011;732;51.698;4.886;2023-08-06T00:05:32;10.40;;;6.90;;
1479;SDS011;732;51.698;4.886;2023-08-06T00:08:02;8.43;;;6.60;;
1479;SDS011;732;51.698;4.886;2023-08-06T00:10:31;9.00;;;6.80;;
1479;SDS011;732;51.698;4.886;2023-08-06T00:13:00;9.37;;;6.30;;
1479;SDS011;732;51.698;4.886;2023-08-06T00:15:28;12.27;;;7.23;;
1479;SDS011;732;51.698;4.886;2023-08-06T00:17:57;11.00;;;7.23;;
1479;SDS011;732;51.698;4.886;2023-08-06T00:20:26;10.87;;;7.27;;
1479;SDS011;732;51.698;4.886;2023-08-06T00:22:55;9.67;;;6.60;;
1479;SDS011;732;51.698;4.886;2023-08-06T00:25:23;10.70;;;7.67;;
1479;SDS011;732;51.698;4.886;2023-08-06T00:27:52;11.57;;;5.90;;
1479;SDS011;732;51.698;4.886;2023-08-06T00:30:20;11.67;;;8.03;;
1479;SDS011;732;51.698;4.886;2023-08-06T00:32:49;11.47;;;6.73;;
1479;SDS011;732;51.698;4.886;2023-08-06T00:35:18;9.10;;;6.33;;
1479;SDS011;732;51.698;4.886;2023-08-06T00:37:47;9.70;;;6.40;;
1479;SDS011;732;51.698;4.886;2023-08-06T00:40:16;10.90;;;6.60;;
1479;SDS011;732;51.698;4.886;2023-08-06T00:42:49;8.27;;;6.00;;
1479;SDS011;732;51.698;4.886;2023-08-06T00:45:17;10.33;;;6.47;;
1479;SDS011;732;51.698;4.886;2023-08-06T00:47:46;7.90;;;6.20;;
1479;SDS011;732;51.698;4.886;2023-08-06T00:50:15;10.70;;;5.90;;
1479;SDS011;732;51.698;4.886;2023-08-06T00:52:43;11.93;;;7.80;;
1479;SDS011;732;51.698;4.886;2023-08-06T00:55:13;9.83;;;6.30;;
1479;SDS011;732;51.698;4.886;2023-08-06T00:57:42;10.57;;;7.20;;
1479;SDS011;732;51.698;4.886;2023-08-06T01:00:11;12.20;;;7.17;;
1479;SDS011;732;51.698;4.886;2023-08-06T01:02:40;11.30;;;7.50;;
1479;SDS011;732;51.698;4.886;2023-08-06T01:05:09;8.10;;;7.00;;
1479;SDS011;732;51.698;4.886;2023-08-06T01:07:41;7.60;;;6.20;;
1479;SDS011;732;51.698;4.886;2023-08-06T01:10:26;10.17;;;6.70;;
1479;SDS011;732;51.698;4.886;2023-08-06T01:13:08;8.67;;;6.10;;
1479;SDS011;732;51.698;4.886;2023-08-06T01:15:55;10.83;;;7.73;;
1479;SDS011;732;51.698;4.886;2023-08-06T01:18:25;11.07;;;7.47;;
1479;SDS011;732;51.698;4.886;2023-08-06T01:20:55;8.17;;;5.73;;
1479;SDS011;732;51.698;4.886;2023-08-06T01:23:23;8.60;;;6.50;;
1479;SDS011;732;51.698;4.886;2023-08-06T01:25:55;13.80;;;7.60;;
1479;SDS011;732;51.698;4.886;2023-08-06T01:28:32;9.00;;;6.33;;
1479;SDS011;732;51.698;4.886;2023-08-06T01:31:10;8.23;;;6.40;;
1479;SDS011;732;51.698;4.886;2023-08-06T01:33:46;8.33;;;6.60;;
1479;SDS011;732;51.698;4.886;2023-08-06T01:36:18;11.10;;;7.13;;
1479;SDS011;732;51.698;4.886;2023-08-06T01:38:48;10.63;;;6.93;;
1479;SDS011;732;51.698;4.886;2023-08-06T01:41:18;11.57;;;7.20;;
1479;SDS011;732;51.698;4.886;2023-08-06T01:43:46;10.77;;;6.53;;
1479;SDS011;732;51.698;4.886;2023-08-06T01:46:15;10.70;;;6.77;;
1479;SDS011;732;51.698;4.886;2023-08-06T01:48:44;9.50;;;6.63;;
1479;SDS011;732;51.698;4.886;2023-08-06T01:51:14;8.27;;;6.60;;
1479;SDS011;732;51.698;4.886;2023-08-06T01:53:44;10.90;;;6.50;;
1479;SDS011;732;51.698;4.886;2023-08-06T01:56:13;8.30;;;6.10;;
1479;SDS011;732;51.698;4.886;2023-08-06T01:58:41;10.70;;;7.03;;
1479;SDS011;732;51.698;4.886;2023-08-06T02:01:10;9.03;;;5.97;;
1479;SDS011;732;51.698;4.886;2023-08-06T02:03:38;8.07;;;5.80;;
1479;SDS011;732;51.698;4.886;2023-08-06T02:06:06;8.87;;;6.07;;
1479;SDS011;732;51.698;4.886;2023-08-06T02:08:35;12.10;;;6.93;;
1479;SDS011;732;51.698;4.886;2023-08-06T02:11:05;10.50;;;6.40;;
1479;SDS011;732;51.698;4.886;2023-08-06T02:13:33;13.27;;;8.40;;
1479;SDS011;732;51.698;4.886;2023-08-06T02:16:02;10.50;;;7.80;;
1479;SDS011;732;51.698;4.886;2023-08-06T02:18:31;9.37;;;6.30;;
1479;SDS011;732;51.698;4.886;2023-08-06T02:21:00;8.83;;;6.20;;
1479;SDS011;732;51.698;4.886;2023-08-06T02:23:28;13.70;;;8.70;;
1479;SDS011;732;51.698;4.886;2023-08-06T02:25:58;11.13;;;7.30;;
1479;SDS011;732;51.698;4.886;2023-08-06T02:28:29;9.57;;;7.63;;
1479;SDS011;732;51.698;4.886;2023-08-06T02:30:58;15.00;;;8.13;;
1479;SDS011;732;51.698;4.886;2023-08-06T02:33:27;11.17;;;7.67;;
1479;SDS011;732;51.698;4.886;2023-08-06T02:35:59;11.77;;;7.70;;
1479;SDS011;732;51.698;4.886;2023-08-06T02:38:30;14.03;;;8.53;;
1479;SDS011;732;51.698;4.886;2023-08-06T02:40:59;9.80;;;7.00;;
1479;SDS011;732;51.698;4.886;2023-08-06T02:43:31;13.60;;;8.40;;
1479;SDS011;732;51.698;4.886;2023-08-06T02:46:00;12.73;;;8.07;;
1479;SDS011;732;51.698;4.886;2023-08-06T02:48:29;10.23;;;7.77;;
1479;SDS011;732;51.698;4.886;2023-08-06T02:50:57;11.80;;;8.20;;
1479;SDS011;732;51.698;4.886;2023-08-06T02:53:29;13.73;;;8.97;;
1479;SDS011;732;51.698;4.886;2023-08-06T02:56:02;12.33;;;9.83;;
1479;SDS011;732;51.698;4.886;2023-08-06T02:58:42;13.60;;;8.90;;
1479;SDS011;732;51.698;4.886;2023-08-06T03:01:25;15.57;;;10.30;;
1479;SDS011;732;51.698;4.886;2023-08-06T03:04:00;16.90;;;9.70;;
1479;SDS011;732;51.698;4.886;2023-08-06T03:06:34;14.17;;;9.87;;
1479;SDS011;732;51.698;4.886;2023-08-06T03:09:03;14.70;;;10.57;;
1479;SDS011;732;51.698;4.886;2023-08-06T03:11:31;10.20;;;8.30;;
1479;SDS011;732;51.698;4.886;2023-08-06T03:14:07;14.00;;;8.97;;
1479;SDS011;732;51.698;4.886;2023-08-06T03:16:37;12.10;;;9.23;;
1479;SDS011;732;51.698;4.886;2023-08-06T03:19:05;14.77;;;10.60;;
1479;SDS011;732;51.698;4.886;2023-08-06T03:21:34;13.60;;;9.47;;
1479;SDS011;732;51.698;4.886;2023-08-06T03:24:03;17.37;;;10.80;;
1479;SDS011;732;51.698;4.886;2023-08-06T03:26:33;15.90;;;10.00;;
1479;SDS011;732;51.698;4.886;2023-08-06T03:29:02;13.00;;;10.20;;
1479;SDS011;732;51.698;4.886;2023-08-06T03:31:34;15.03;;;10.30;;
1479;SDS011;732;51.698;4.886;2023-08-06T03:34:03;17.27;;;10.30;;
1479;SDS011;732;51.698;4.886;2023-08-06T03:36:32;18.03;;;10.83;;
1479;SDS011;732;51.698;4.886;2023-08-06T03:39:00;22.17;;;12.33;;
1479;SDS011;732;51.698;4.886;2023-08-06T03:41:30;18.17;;;11.80;;
1479;SDS011;732;51.698;4.886;2023-08-06T03:43:59;23.97;;;13.60;;
1479;SDS011;732;51.698;4.886;2023-08-06T03:46:30;15.47;;;11.03;;
1479;SDS011;732;51.698;4.886;2023-08-06T03:49:04;13.03;;;9.33;;
1479;SDS011;732;51.698;4.886;2023-08-06T03:51:32;18.30;;;10.17;;
1479;SDS011;732;51.698;4.886;2023-08-06T03:54:01;14.43;;;8.50;;
1479;SDS011;732;51.698;4.886;2023-08-06T03:56:30;11.20;;;7.90;;
1479;SDS011;732;51.698;4.886;2023-08-06T03:58:59;13.03;;;8.20;;
1479;SDS011;732;51.698;4.886;2023-08-06T04:01:27;14.70;;;8.97;;
1479;SDS011;732;51.698;4.886;2023-08-06T04:03:56;22.03;;;8.90;;
1479;SDS011;732;51.698;4.886;2023-08-06T04:06:26;29.43;;;10.00;;
1479;SDS011;732;51.698;4.886;2023-08-06T04:08:55;21.47;;;7.70;;
1479;SDS011;732;51.698;4.886;2023-08-06T04:11:23;15.93;;;7.03;;
1479;SDS011;732;51.698;4.886;2023-08-06T04:13:52;14.53;;;6.90;;
1479;SDS011;732;51.698;4.886;2023-08-06T04:16:23;12.30;;;6.70;;
1479;SDS011;732;51.698;4.886;2023-08-06T04:18:53;9.73;;;5.60;;
1479;SDS011;732;51.698;4.886;2023-08-06T04:21:22;15.83;;;7.70;;
1479;SDS011;732;51.698;4.886;2023-08-06T04:23:52;13.97;;;7.87;;
1479;SDS011;732;51.698;4.886;2023-08-06T04:26:21;11.03;;;7.10;;
1479;SDS011;732;51.698;4.886;2023-08-06T04:28:49;13.30;;;6.77;;
1479;SDS011;732;51.698;4.886;2023-08-06T04:31:19;11.43;;;6.90;;
1479;SDS011;732;51.698;4.886;2023-08-06T04:33:49;11.07;;;6.80;;
1479;SDS011;732;51.698;4.886;2023-08-06T04:36:19;13.60;;;7.07;;
1479;SDS011;732;51.698;4.886;2023-08-06T04:38:47;10.80;;;6.60;;
1479;SDS011;732;51.698;4.886;2023-08-06T04:41:17;8.33;;;5.17;;
1479;SDS011;732;51.698;4.886;2023-08-06T04:43:45;8.90;;;4.10;;
1479;SDS011;732;51.698;4.886;2023-08-06T04:46:14;6.50;;;4.50;;
1479;SDS011;732;51.698;4.886;2023-08-06T04:48:42;8.70;;;4.60;;
1479;SDS011;732;51.698;4.886;2023-08-06T04:51:11;5.00;;;3.30;;
1479;SDS011;732;51.698;4.886;2023-08-06T04:53:40;3.80;;;2.17;;
1479;SDS011;732;51.698;4.886;2023-08-06T04:56:09;3.50;;;2.47;;
1479;SDS011;732;51.698;4.886;2023-08-06T04:58:38;4.73;;;2.60;;
1479;SDS011;732;51.698;4.886;2023-08-06T05:01:07;4.17;;;2.20;;
1479;SDS011;732;51.698;4.886;2023-08-06T05:03:35;5.60;;;3.60;;
1479;SDS011;732;51.698;4.886;2023-08-06T05:06:04;7.73;;;3.57;;
1479;SDS011;732;51.698;4.886;2023-08-06T05:08:32;13.90;;;7.57;;
1479;SDS011;732;51.698;4.886;2023-08-06T05:11:01;15.63;;;9.80;;
1479;SDS011;732;51.698;4.886;2023-08-06T05:13:29;19.60;;;12.43;;
1479;SDS011;732;51.698;4.886;2023-08-06T05:15:59;16.47;;;10.20;;
1479;SDS011;732;51.698;4.886;2023-08-06T05:18:28;12.97;;;9.47;;
1479;SDS011;732;51.698;4.886;2023-08-06T05:20:57;16.80;;;10.20;;
1479;SDS011;732;51.698;4.886;2023-08-06T05:23:25;20.97;;;11.73;;
1479;SDS011;732;51.698;4.886;2023-08-06T05:25:54;11.87;;;9.00;;
1479;SDS011;732;51.698;4.886;2023-08-06T05:28:22;14.97;;;10.07;;
1479;SDS011;732;51.698;4.886;2023-08-06T05:30:50;15.43;;;10.50;;
1479;SDS011;732;51.698;4.886;2023-08-06T05:33:20;13.20;;;10.73;;
1479;SDS011;732;51.698;4.886;2023-08-06T05:35:49;13.97;;;11.00;;
1479;SDS011;732;51.698;4.886;2023-08-06T05:38:17;22.60;;;11.53;;
1479;SDS011;732;51.698;4.886;2023-08-06T05:40:46;15.93;;;11.57;;
1479;SDS011;732;51.698;4.886;2023-08-06T05:43:15;17.97;;;11.10;;
1479;SDS011;732;51.698;4.886;2023-08-06T05:45:44;19.77;;;11.27;;
1479;SDS011;732;51.698;4.886;2023-08-06T05:48:13;17.93;;;10.73;;
1479;SDS011;732;51.698;4.886;2023-08-06T05:50:44;19.40;;;10.60;;
1479;SDS011;732;51.698;4.886;2023-08-06T05:53:12;14.23;;;9.80;;
1479;SDS011;732;51.698;4.886;2023-08-06T05:55:41;19.03;;;10.30;;
1479;SDS011;732;51.698;4.886;2023-08-06T05:58:09;14.20;;;9.67;;
1479;SDS011;732;51.698;4.886;2023-08-06T06:00:37;13.70;;;8.97;;
1479;SDS011;732;51.698;4.886;2023-08-06T06:03:06;13.93;;;11.23;;
1479;SDS011;732;51.698;4.886;2023-08-06T06:05:34;16.93;;;9.60;;
1479;SDS011;732;51.698;4.886;2023-08-06T06:08:06;17.30;;;9.93;;
1479;SDS011;732;51.698;4.886;2023-08-06T06:10:35;14.63;;;10.20;;
1479;SDS011;732;51.698;4.886;2023-08-06T06:13:03;15.53;;;9.07;;
1479;SDS011;732;51.698;4.886;2023-08-06T06:15:35;17.80;;;10.67;;
1479;SDS011;732;51.698;4.886;2023-08-06T06:18:04;17.73;;;10.13;;
1479;SDS011;732;51.698;4.886;2023-08-06T06:20:34;20.33;;;10.07;;
1479;SDS011;732;51.698;4.886;2023-08-06T06:23:03;16.40;;;11.50;;
1479;SDS011;732;51.698;4.886;2023-08-06T06:25:32;16.17;;;10.73;;
1479;SDS011;732;51.698;4.886;2023-08-06T06:28:02;23.43;;;11.40;;
1479;SDS011;732;51.698;4.886;2023-08-06T06:30:31;17.30;;;11.63;;
1479;SDS011;732;51.698;4.886;2023-08-06T06:33:01;19.90;;;11.17;;
1479;SDS011;732;51.698;4.886;2023-08-06T06:35:30;19.60;;;12.00;;
1479;SDS011;732;51.698;4.886;2023-08-06T06:37:58;13.17;;;9.00;;
1479;SDS011;732;51.698;4.886;2023-08-06T06:40:26;13.93;;;7.77;;
1479;SDS011;732;51.698;4.886;2023-08-06T06:42:56;12.97;;;8.27;;
1479;SDS011;732;51.698;4.886;2023-08-06T06:45:24;16.70;;;9.17;;
1479;SDS011;732;51.698;4.886;2023-08-06T06:47:52;11.70;;;6.77;;
1479;SDS011;732;51.698;4.886;2023-08-06T06:50:21;13.97;;;7.40;;
1479;SDS011;732;51.698;4.886;2023-08-06T06:52:50;11.20;;;6.80;;
1479;SDS011;732;51.698;4.886;2023-08-06T06:55:18;13.00;;;7.00;;
1479;SDS011;732;51.698;4.886;2023-08-06T06:57:46;10.70;;;6.00;;
1479;SDS011;732;51.698;4.886;2023-08-06T07:00:16;8.10;;;5.10;;
1479;SDS011;732;51.698;4.886;2023-08-06T07:02:45;8.43;;;5.17;;
1479;SDS011;732;51.698;4.886;2023-08-06T07:05:13;9.00;;;5.13;;
1479;SDS011;732;51.698;4.886;2023-08-06T07:07:42;11.07;;;5.53;;
1479;SDS011;732;51.698;4.886;2023-08-06T07:10:10;10.17;;;6.07;;
1479;SDS011;732;51.698;4.886;2023-08-06T07:12:39;12.73;;;5.10;;
1479;SDS011;732;51.698;4.886;2023-08-06T07:15:08;9.30;;;5.03;;
1479;SDS011;732;51.698;4.886;2023-08-06T07:17:38;7.33;;;5.00;;
1479;SDS011;732;51.698;4.886;2023-08-06T07:20:07;13.23;;;5.03;;
1479;SDS011;732;51.698;4.886;2023-08-06T07:22:36;11.07;;;4.10;;
1479;SDS011;732;51.698;4.886;2023-08-06T07:25:04;9.63;;;4.20;;
1479;SDS011;732;51.698;4.886;2023-08-06T07:27:33;13.13;;;4.20;;
1479;SDS011;732;51.698;4.886;2023-08-06T07:30:02;7.30;;;2.80;;
1479;SDS011;732;51.698;4.886;2023-08-06T07:32:32;8.70;;;3.70;;
1479;SDS011;732;51.698;4.886;2023-08-06T07:35:04;8.77;;;3.67;;
1479;SDS011;732;51.698;4.886;2023-08-06T07:37:34;8.07;;;3.63;;
1479;SDS011;732;51.698;4.886;2023-08-06T07:40:03;7.50;;;2.60;;
1479;SDS011;732;51.698;4.886;2023-08-06T07:42:32;10.00;;;3.57;;
1479;SDS011;732;51.698;4.886;2023-08-06T07:45:02;5.43;;;3.50;;
1479;SDS011;732;51.698;4.886;2023-08-06T07:47:31;10.20;;;2.90;;
1479;SDS011;732;51.698;4.886;2023-08-06T07:50:00;7.60;;;3.00;;
1479;SDS011;732;51.698;4.886;2023-08-06T07:52:29;10.47;;;3.70;;
1479;SDS011;732;51.698;4.886;2023-08-06T07:54:58;8.00;;;3.53;;
1479;SDS011;732;51.698;4.886;2023-08-06T07:57:27;9.00;;;4.20;;
1479;SDS011;732;51.698;4.886;2023-08-06T07:59:56;6.77;;;3.80;;
1479;SDS011;732;51.698;4.886;2023-08-06T08:02:24;13.30;;;4.53;;
1479;SDS011;732;51.698;4.886;2023-08-06T08:04:53;8.87;;;3.90;;
1479;SDS011;732;51.698;4.886;2023-08-06T08:07:21;10.80;;;3.50;;
1479;SDS011;732;51.698;4.886;2023-08-06T08:09:51;8.20;;;4.23;;
1479;SDS011;732;51.698;4.886;2023-08-06T08:12:19;7.93;;;3.37;;
1479;SDS011;732;51.698;4.886;2023-08-06T08:14:49;6.10;;;3.33;;
1479;SDS011;732;51.698;4.886;2023-08-06T08:17:17;5.20;;;3.53;;
1479;SDS011;732;51.698;4.886;2023-08-06T08:19:46;8.10;;;4.10;;
1479;SDS011;732;51.698;4.886;2023-08-06T08:22:14;7.47;;;4.07;;
1479;SDS011;732;51.698;4.886;2023-08-06T08:24:43;8.57;;;3.90;;
1479;SDS011;732;51.698;4.886;2023-08-06T08:27:12;7.97;;;3.77;;
1479;SDS011;732;51.698;4.886;2023-08-06T08:29:41;6.90;;;3.63;;
1479;SDS011;732;51.698;4.886;2023-08-06T08:32:10;9.60;;;3.77;;
1479;SDS011;732;51.698;4.886;2023-08-06T08:34:38;9.20;;;3.20;;
1479;SDS011;732;51.698;4.886;2023-08-06T08:37:07;7.20;;;3.73;;
1479;SDS011;732;51.698;4.886;2023-08-06T08:39:35;7.97;;;4.13;;
1479;SDS011;732;51.698;4.886;2023-08-06T08:42:04;6.83;;;3.53;;
1479;SDS011;732;51.698;4.886;2023-08-06T08:44:35;7.50;;;3.80;;
1479;SDS011;732;51.698;4.886;2023-08-06T08:47:05;5.87;;;3.37;;
1479;SDS011;732;51.698;4.886;2023-08-06T08:49:36;8.20;;;3.60;;
1479;SDS011;732;51.698;4.886;2023-08-06T08:52:09;6.27;;;3.33;;
1479;SDS011;732;51.698;4.886;2023-08-06T08:54:39;5.93;;;3.40;;
1479;SDS011;732;51.698;4.886;2023-08-06T08:57:08;5.30;;;3.23;;
1479;SDS011;732;51.698;4.886;2023-08-06T08:59:38;6.30;;;3.43;;
1479;SDS011;732;51.698;4.886;2023-08-06T09:02:06;9.17;;;3.53;;
1479;SDS011;732;51.698;4.886;2023-08-06T09:04:39;5.47;;;3.30;;
1479;SDS011;732;51.698;4.886;2023-08-06T09:07:08;5.57;;;3.10;;
1479;SDS011;732;51.698;4.886;2023-08-06T09:09:40;5.43;;;3.00;;
1479;SDS011;732;51.698;4.886;2023-08-06T09:12:15;6.20;;;2.97;;
1479;SDS011;732;51.698;4.886;2023-08-06T09:14:45;5.50;;;2.73;;
1479;SDS011;732;51.698;4.886;2023-08-06T09:17:14;7.37;;;2.90;;
1479;SDS011;732;51.698;4.886;2023-08-06T09:19:46;8.27;;;2.73;;
1479;SDS011;732;51.698;4.886;2023-08-06T09:22:16;7.10;;;3.20;;
1479;SDS011;732;51.698;4.886;2023-08-06T09:24:44;6.40;;;3.17;;
1479;SDS011;732;51.698;4.886;2023-08-06T09:27:13;6.30;;;3.00;;
1479;SDS011;732;51.698;4.886;2023-08-06T09:29:42;10.57;;;2.73;;
1479;SDS011;732;51.698;4.886;2023-08-06T09:32:13;4.73;;;2.47;;
1479;SDS011;732;51.698;4.886;2023-08-06T09:34:41;5.80;;;2.70;;
1479;SDS011;732;51.698;4.886;2023-08-06T09:37:11;4.67;;;2.60;;
1479;SDS011;732;51.698;4.886;2023-08-06T09:39:40;7.13;;;2.60;;
1479;SDS011;732;51.698;4.886;2023-08-06T09:42:09;6.03;;;3.00;;
1479;SDS011;732;51.698;4.886;2023-08-06T09:44:38;5.90;;;2.33;;
1479;SDS011;732;51.698;4.886;2023-08-06T09:47:08;4.63;;;2.10;;
1479;SDS011;732;51.698;4.886;2023-08-06T09:49:41;6.37;;;2.20;;
1479;SDS011;732;51.698;4.886;2023-08-06T09:52:12;3.50;;;1.80;;
1479;SDS011;732;51.698;4.886;2023-08-06T09:54:42;3.63;;;2.47;;
1479;SDS011;732;51.698;4.886;2023-08-06T09:57:12;5.03;;;2.10;;
1479;SDS011;732;51.698;4.886;2023-08-06T09:59:41;2.83;;;1.93;;
1479;SDS011;732;51.698;4.886;2023-08-06T10:02:12;5.30;;;2.03;;
1479;SDS011;732;51.698;4.886;2023-08-06T10:04:43;5.17;;;1.97;;
1479;SDS011;732;51.698;4.886;2023-08-06T10:07:21;4.50;;;2.67;;
1479;SDS011;732;51.698;4.886;2023-08-06T10:09:51;4.73;;;2.47;;
1479;SDS011;732;51.698;4.886;2023-08-06T10:12:19;5.03;;;2.30;;
1479;SDS011;732;51.698;4.886;2023-08-06T10:14:51;3.70;;;1.97;;
1479;SDS011;732;51.698;4.886;2023-08-06T10:17:23;18.03;;;3.03;;
1479;SDS011;732;51.698;4.886;2023-08-06T10:20:12;4.30;;;2.50;;
1479;SDS011;732;51.698;4.886;2023-08-06T10:22:42;3.53;;;2.43;;
1479;SDS011;732;51.698;4.886;2023-08-06T10:25:15;3.67;;;2.20;;
1479;SDS011;732;51.698;4.886;2023-08-06T10:27:53;4.10;;;2.03;;
1479;SDS011;732;51.698;4.886;2023-08-06T10:30:23;4.40;;;1.93;;
1479;SDS011;732;51.698;4.886;2023-08-06T10:32:53;3.73;;;2.17;;
1479;SDS011;732;51.698;4.886;2023-08-06T10:35:38;4.30;;;1.77;;
1479;SDS011;732;51.698;4.886;2023-08-06T10:38:11;3.87;;;2.10;;
1479;SDS011;732;51.698;4.886;2023-08-06T10:40:48;3.90;;;1.60;;
1479;SDS011;732;51.698;4.886;2023-08-06T10:43:29;3.20;;;1.50;;
1479;SDS011;732;51.698;4.886;2023-08-06T10:46:01;6.33;;;1.83;;
1479;SDS011;732;51.698;4.886;2023-08-06T10:48:31;3.30;;;1.93;;
1479;SDS011;732;51.698;4.886;2023-08-06T10:51:06;3.30;;;1.67;;
1479;SDS011;732;51.698;4.886;2023-08-06T10:53:36;3.23;;;1.67;;
1479;SDS011;732;51.698;4.886;2023-08-06T10:56:11;5.27;;;1.77;;
1479;SDS011;732;51.698;4.886;2023-08-06T10:58:40;2.83;;;1.63;;
1479;SDS011;732;51.698;4.886;2023-08-06T11:01:09;4.60;;;1.70;;
1479;SDS011;732;51.698;4.886;2023-08-06T11:03:39;3.17;;;1.63;;
1479;SDS011;732;51.698;4.886;2023-08-06T11:06:09;4.07;;;1.80;;
1479;SDS011;732;51.698;4.886;2023-08-06T11:08:38;3.53;;;1.80;;
1479;SDS011;732;51.698;4.886;2023-08-06T11:11:14;2.93;;;1.83;;
1479;SDS011;732;51.698;4.886;2023-08-06T11:13:45;5.00;;;1.73;;
1479;SDS011;732;51.698;4.886;2023-08-06T11:16:15;3.03;;;1.37;;
1479;SDS011;732;51.698;4.886;2023-08-06T11:18:46;4.90;;;1.70;;
1479;SDS011;732;51.698;4.886;2023-08-06T11:21:16;4.47;;;1.40;;
1479;SDS011;732;51.698;4.886;2023-08-06T11:23:48;2.57;;;1.53;;
1479;SDS011;732;51.698;4.886;2023-08-06T11:26:18;5.77;;;2.03;;
1479;SDS011;732;51.698;4.886;2023-08-06T11:28:47;4.97;;;1.80;;
1479;SDS011;732;51.698;4.886;2023-08-06T11:31:19;6.53;;;1.70;;
1479;SDS011;732;51.698;4.886;2023-08-06T11:33:48;5.30;;;2.10;;
1479;SDS011;732;51.698;4.886;2023-08-06T11:36:29;5.40;;;1.80;;
1479;SDS011;732;51.698;4.886;2023-08-06T11:38:58;9.60;;;1.83;;
1479;SDS011;732;51.698;4.886;2023-08-06T11:41:27;6.67;;;2.20;;
1479;SDS011;732;51.698;4.886;2023-08-06T11:43:56;3.63;;;1.70;;
1479;SDS011;732;51.698;4.886;2023-08-06T11:46:25;3.07;;;1.77;;
1479;SDS011;732;51.698;4.886;2023-08-06T11:48:54;6.17;;;2.20;;
1479;SDS011;732;51.698;4.886;2023-08-06T11:51:24;4.50;;;1.67;;
1479;SDS011;732;51.698;4.886;2023-08-06T11:53:55;5.40;;;1.90;;
1479;SDS011;732;51.698;4.886;2023-08-06T11:56:25;6.67;;;2.03;;
1479;SDS011;732;51.698;4.886;2023-08-06T11:58:55;4.97;;;1.97;;
1479;SDS011;732;51.698;4.886;2023-08-06T12:01:23;5.17;;;1.60;;
1479;SDS011;732;51.698;4.886;2023-08-06T12:03:58;7.70;;;1.87;;
1479;SDS011;732;51.698;4.886;2023-08-06T12:06:26;7.87;;;1.70;;
1479;SDS011;732;51.698;4.886;2023-08-06T12:08:57;8.00;;;1.97;;
1479;SDS011;732;51.698;4.886;2023-08-06T12:11:25;6.67;;;2.00;;
1479;SDS011;732;51.698;4.886;2023-08-06T12:13:54;4.30;;;1.57;;
1479;SDS011;732;51.698;4.886;2023-08-06T12:16:23;6.93;;;2.10;;
1479;SDS011;732;51.698;4.886;2023-08-06T12:18:51;4.23;;;1.73;;
1479;SDS011;732;51.698;4.886;2023-08-06T12:21:20;4.40;;;1.67;;
1479;SDS011;732;51.698;4.886;2023-08-06T12:23:48;2.87;;;1.40;;
1479;SDS011;732;51.698;4.886;2023-08-06T12:26:18;3.33;;;1.67;;
1479;SDS011;732;51.698;4.886;2023-08-06T12:28:46;3.10;;;1.50;;
1479;SDS011;732;51.698;4.886;2023-08-06T12:31:16;3.43;;;1.40;;
1479;SDS011;732;51.698;4.886;2023-08-06T12:33:44;4.20;;;1.77;;
1479;SDS011;732;51.698;4.886;2023-08-06T12:36:12;4.50;;;1.80;;
1479;SDS011;732;51.698;4.886;2023-08-06T12:38:41;3.30;;;1.53;;
1479;SDS011;732;51.698;4.886;2023-08-06T12:41:09;4.43;;;2.00;;
1479;SDS011;732;51.698;4.886;2023-08-06T12:43:39;3.07;;;1.50;;
1479;SDS011;732;51.698;4.886;2023-08-06T12:46:08;2.80;;;1.30;;
1479;SDS011;732;51.698;4.886;2023-08-06T12:48:36;3.30;;;1.50;;
1479;SDS011;732;51.698;4.886;2023-08-06T12:51:05;5.70;;;1.20;;
1479;SDS011;732;51.698;4.886;2023-08-06T12:53:33;3.20;;;1.30;;
1479;SDS011;732;51.698;4.886;2023-08-06T12:56:02;3.60;;;1.50;;
1479;SDS011;732;51.698;4.886;2023-08-06T12:58:31;3.00;;;1.50;;
1479;SDS011;732;51.698;4.886;2023-08-06T13:01:00;4.87;;;1.30;;
1479;SDS011;732;51.698;4.886;2023-08-06T13:03:28;2.53;;;1.40;;
1479;SDS011;732;51.698;4.886;2023-08-06T13:05:58;3.53;;;1.87;;
1479;SDS011;732;51.698;4.886;2023-08-06T13:08:27;5.37;;;1.30;;
1479;SDS011;732;51.698;4.886;2023-08-06T13:10:55;2.13;;;1.30;;
1479;SDS011;732;51.698;4.886;2023-08-06T13:13:24;5.47;;;1.80;;
1479;SDS011;732;51.698;4.886;2023-08-06T13:15:53;3.87;;;1.50;;
1479;SDS011;732;51.698;4.886;2023-08-06T13:18:23;2.30;;;1.50;;
1479;SDS011;732;51.698;4.886;2023-08-06T13:20:52;3.57;;;1.60;;
1479;SDS011;732;51.698;4.886;2023-08-06T13:23:21;5.20;;;1.57;;
1479;SDS011;732;51.698;4.886;2023-08-06T13:25:49;3.03;;;1.43;;
1479;SDS011;732;51.698;4.886;2023-08-06T13:28:17;5.07;;;1.40;;
1479;SDS011;732;51.698;4.886;2023-08-06T13:30:46;6.30;;;1.40;;
1479;SDS011;732;51.698;4.886;2023-08-06T13:33:14;4.93;;;1.90;;
1479;SDS011;732;51.698;4.886;2023-08-06T13:35:44;4.60;;;1.70;;
1479;SDS011;732;51.698;4.886;2023-08-06T13:38:13;3.03;;;1.30;;
1479;SDS011;732;51.698;4.886;2023-08-06T13:40:41;2.53;;;1.20;;
1479;SDS011;732;51.698;4.886;2023-08-06T13:43:10;2.47;;;1.17;;
1479;SDS011;732;51.698;4.886;2023-08-06T13:45:39;2.80;;;1.30;;
1479;SDS011;732;51.698;4.886;2023-08-06T13:48:07;4.20;;;1.30;;
1479;SDS011;732;51.698;4.886;2023-08-06T13:50:36;3.87;;;1.40;;
1479;SDS011;732;51.698;4.886;2023-08-06T13:53:07;2.93;;;1.10;;
1479;SDS011;732;51.698;4.886;2023-08-06T13:55:36;2.40;;;1.03;;
1479;SDS011;732;51.698;4.886;2023-08-06T13:58:05;1.87;;;1.00;;
1479;SDS011;732;51.698;4.886;2023-08-06T14:00:35;2.90;;;1.27;;
1479;SDS011;732;51.698;4.886;2023-08-06T14:03:03;5.23;;;0.87;;
1479;SDS011;732;51.698;4.886;2023-08-06T14:05:32;1.73;;;0.90;;
1479;SDS011;732;51.698;4.886;2023-08-06T14:08:00;3.63;;;1.10;;
1479;SDS011;732;51.698;4.886;2023-08-06T14:10:30;2.90;;;0.97;;
1479;SDS011;732;51.698;4.886;2023-08-06T14:12:59;4.20;;;1.27;;
1479;SDS011;732;51.698;4.886;2023-08-06T14:15:36;5.10;;;1.43;;
1479;SDS011;732;51.698;4.886;2023-08-06T14:18:06;5.63;;;1.67;;
1479;SDS011;732;51.698;4.886;2023-08-06T14:20:37;4.93;;;1.60;;
1479;SDS011;732;51.698;4.886;2023-08-06T14:23:06;6.83;;;1.97;;
1479;SDS011;732;51.698;4.886;2023-08-06T14:25:36;8.43;;;1.53;;
1479;SDS011;732;51.698;4.886;2023-08-06T14:28:04;9.30;;;2.10;;
1479;SDS011;732;51.698;4.886;2023-08-06T14:30:34;6.20;;;1.40;;
1479;SDS011;732;51.698;4.886;2023-08-06T14:33:03;4.67;;;1.20;;
1479;SDS011;732;51.698;4.886;2023-08-06T14:35:51;2.67;;;1.43;;
1479;SDS011;732;51.698;4.886;2023-08-06T14:38:20;4.33;;;1.17;;
1479;SDS011;732;51.698;4.886;2023-08-06T14:40:49;2.37;;;1.03;;
1479;SDS011;732;51.698;4.886;2023-08-06T14:43:18;6.93;;;1.60;;
1479;SDS011;732;51.698;4.886;2023-08-06T14:45:46;3.63;;;1.10;;
1479;SDS011;732;51.698;4.886;2023-08-06T14:48:15;1.63;;;0.83;;
1479;SDS011;732;51.698;4.886;2023-08-06T14:50:44;1.80;;;0.90;;
1479;SDS011;732;51.698;4.886;2023-08-06T14:53:13;2.60;;;1.30;;
1479;SDS011;732;51.698;4.886;2023-08-06T14:55:41;2.33;;;0.90;;
1479;SDS011;732;51.698;4.886;2023-08-06T14:58:11;5.93;;;1.47;;
1479;SDS011;732;51.698;4.886;2023-08-06T15:00:39;3.70;;;1.10;;
1479;SDS011;732;51.698;4.886;2023-08-06T15:03:08;3.50;;;1.10;;
1479;SDS011;732;51.698;4.886;2023-08-06T15:05:36;4.00;;;1.20;;
1479;SDS011;732;51.698;4.886;2023-08-06T15:08:05;1.40;;;0.87;;
1479;SDS011;732;51.698;4.886;2023-08-06T15:10:33;5.07;;;1.50;;
1479;SDS011;732;51.698;4.886;2023-08-06T15:13:02;3.63;;;1.27;;
1479;SDS011;732;51.698;4.886;2023-08-06T15:15:32;3.00;;;1.23;;
1479;SDS011;732;51.698;4.886;2023-08-06T15:18:00;3.00;;;1.50;;
1479;SDS011;732;51.698;4.886;2023-08-06T15:20:28;3.30;;;1.17;;
1479;SDS011;732;51.698;4.886;2023-08-06T15:22:57;2.33;;;1.27;;
1479;SDS011;732;51.698;4.886;2023-08-06T15:25:25;3.90;;;1.60;;
1479;SDS011;732;51.698;4.886;2023-08-06T15:27:56;4.00;;;1.10;;
1479;SDS011;732;51.698;4.886;2023-08-06T15:30:25;4.10;;;1.30;;
1479;SDS011;732;51.698;4.886;2023-08-06T15:32:54;2.70;;;1.50;;
1479;SDS011;732;51.698;4.886;2023-08-06T15:35:23;5.30;;;1.50;;
1479;SDS011;732;51.698;4.886;2023-08-06T15:37:51;5.53;;;1.40;;